createdAt,value
2023-01-09T00:04:57.920Z,66.47
2023-01-09T00:10:00.931Z,65.00
2023-01-09T00:15:05.383Z,60.83
2023-01-09T00:20:10.048Z,60.97
2023-01-09T00:25:13.042Z,60.31
2023-01-09T00:30:16.236Z,64.39
2023-01-09T00:35:22.132Z,64.18
2023-01-09T00:40:25.216Z,63.57
2023-01-09T00:45:29.956Z,64.19
2023-01-09T00:50:34.605Z,66.03
2023-01-09T00:55:39.658Z,66.42
2023-01-09T01:00:42.562Z,67.50
2023-01-09T01:06:04.308Z,68.52
2023-01-09T01:11:10.395Z,66.87
2023-01-09T01:16:13.799Z,66.85
2023-01-09T01:21:17.422Z,64.61
2023-01-09T01:26:20.436Z,64.71
2023-01-09T01:31:23.533Z,65.24
2023-01-09T01:36:26.646Z,64.07
2023-01-09T01:41:30.070Z,61.56
2023-01-09T01:46:34.627Z,59.96
2023-01-09T01:51:43.089Z,64.25
2023-01-09T01:56:51.063Z,61.51
2023-01-09T02:01:58.126Z,60.29
2023-01-09T02:07:05.024Z,64.94
2023-01-09T02:12:27.013Z,62.01
2023-01-09T02:17:39.336Z,58.65
2023-01-09T02:23:00.986Z,65.50
2023-01-09T02:28:31.237Z,58.89
2023-01-09T02:33:52.868Z,62.06
2023-01-09T02:39:20.756Z,66.58
2023-01-09T02:44:26.231Z,66.70
2023-01-09T02:49:30.059Z,63.84
2023-01-09T02:54:47.492Z,60.55
2023-01-09T03:00:16.609Z,65.56
2023-01-09T03:05:19.620Z,63.03
2023-01-09T03:10:39.745Z,65.33
2023-01-09T03:15:46.008Z,65.05
2023-01-09T03:20:51.705Z,63.58
2023-01-09T03:25:54.688Z,62.68
2023-01-09T03:30:57.810Z,62.38
2023-01-09T03:36:01.109Z,60.25
2023-01-09T03:41:04.626Z,59.78
2023-01-09T03:46:07.575Z,65.24
2023-01-09T03:51:10.637Z,63.03
2023-01-09T03:56:13.540Z,63.36
2023-01-09T04:01:16.659Z,61.72
2023-01-09T04:06:19.757Z,61.82
2023-01-09T04:11:22.664Z,61.21
2023-01-09T04:16:25.793Z,60.79
2023-01-09T04:21:28.785Z,60.43
2023-01-09T04:26:31.887Z,60.32
2023-01-09T04:31:34.938Z,59.35
2023-01-09T04:36:38.003Z,66.33
2023-01-09T04:41:49.818Z,64.70
2023-01-09T04:46:55.175Z,64.28
2023-01-09T04:51:58.185Z,63.67
2023-01-09T04:57:01.293Z,62.97
2023-01-09T05:02:04.409Z,62.00
2023-01-09T05:07:07.815Z,62.53
2023-01-09T05:12:10.831Z,61.65
2023-01-09T05:17:13.829Z,61.61
2023-01-09T05:22:17.041Z,61.12
2023-01-09T05:27:20.046Z,60.69
2023-01-09T05:32:23.263Z,61.06
2023-01-09T05:37:26.377Z,62.44
2023-01-09T05:42:29.476Z,62.98
2023-01-09T05:47:32.691Z,61.76
2023-01-09T05:52:35.802Z,61.51
2023-01-09T05:57:38.800Z,62.16
2023-01-09T06:02:42.059Z,61.85
2023-01-09T06:07:45.343Z,60.89
2023-01-09T06:12:50.641Z,61.05
2023-01-09T06:17:53.901Z,65.70
2023-01-09T06:22:57.007Z,63.10
2023-01-09T06:28:00.164Z,63.33
2023-01-09T06:33:03.120Z,62.07
2023-01-09T06:38:06.437Z,60.43
2023-01-09T06:43:09.519Z,59.89
2023-01-09T06:48:13.242Z,60.83
2023-01-09T06:53:16.277Z,61.31
2023-01-09T06:58:19.660Z,61.56
2023-01-09T07:03:23.001Z,61.05
2023-01-09T07:08:26.012Z,61.22
2023-01-09T07:13:29.117Z,62.12
2023-01-09T07:18:32.130Z,62.88
2023-01-09T07:23:35.437Z,62.32
2023-01-09T07:28:38.434Z,61.00
2023-01-09T07:33:41.346Z,60.63
2023-01-09T07:38:44.456Z,60.49
2023-01-09T07:43:47.479Z,63.87
2023-01-09T07:48:50.674Z,61.86
2023-01-09T07:53:53.794Z,60.46
2023-01-09T07:58:56.847Z,60.52
2023-01-09T08:03:59.799Z,60.07
2023-01-09T08:09:02.920Z,65.20
2023-01-09T08:14:06.019Z,63.25
2023-01-09T08:19:12.336Z,61.24
2023-01-09T08:24:15.414Z,60.97
2023-01-09T08:29:18.644Z,58.66
2023-01-09T08:34:22.094Z,64.39
2023-01-09T08:39:25.141Z,61.01
2023-01-09T08:44:46.904Z,60.13
2023-01-09T08:49:50.104Z,59.33
2023-01-09T08:54:53.109Z,65.62
2023-01-09T08:59:56.225Z,63.24
2023-01-09T09:04:59.634Z,61.26
2023-01-09T09:10:03.000Z,60.62
2023-01-09T09:15:12.918Z,60.69
2023-01-09T09:20:16.232Z,60.56
2023-01-09T09:25:20.309Z,61.18
2023-01-09T09:30:24.814Z,61.95
2023-01-09T09:35:28.835Z,61.65
2023-01-09T09:41:04.105Z,62.02
2023-01-09T09:46:19.725Z,62.42
2023-01-09T09:51:34.999Z,63.04
2023-01-09T09:56:51.735Z,62.40
2023-01-09T10:02:09.958Z,61.64
2023-01-09T10:07:35.420Z,61.73
2023-01-09T10:12:47.550Z,62.40
2023-01-09T10:17:56.364Z,64.33
2023-01-09T10:23:21.101Z,63.71
2023-01-09T10:28:50.008Z,64.66
2023-01-09T10:33:59.892Z,63.37
2023-01-09T10:39:09.984Z,65.65
2023-01-09T10:44:37.843Z,67.73
2023-01-09T10:49:41.332Z,64.80
2023-01-09T10:55:02.813Z,63.85
2023-01-09T11:00:07.462Z,66.18
2023-01-09T11:05:19.275Z,68.06
2023-01-09T11:10:25.137Z,68.41
2023-01-09T11:15:31.703Z,69.72
2023-01-09T11:20:34.934Z,69.57
2023-01-09T11:25:53.518Z,65.08
2023-01-09T11:31:01.414Z,60.91
2023-01-09T11:36:11.250Z,58.72
2023-01-09T11:41:21.273Z,63.91
2023-01-09T11:46:32.942Z,60.04
2023-01-09T11:51:37.133Z,63.82
2023-01-09T11:56:41.309Z,59.73
2023-01-09T12:02:19.287Z,63.14
2023-01-09T12:07:58.323Z,60.32
2023-01-09T12:13:20.478Z,63.57
2023-01-09T12:18:45.291Z,61.03
2023-01-09T12:24:25.997Z,62.61
2023-01-09T12:30:02.166Z,60.89
2023-01-09T12:36:07.022Z,62.13
2023-01-09T12:41:52.392Z,62.51
2023-01-09T12:47:24.423Z,59.78
2023-01-09T12:52:48.106Z,63.87
2023-01-09T12:57:54.992Z,61.89
2023-01-09T13:03:12.630Z,60.38
2023-01-09T13:08:25.592Z,65.21
2023-01-09T13:13:56.964Z,63.55
2023-01-09T13:19:07.945Z,65.35
2023-01-09T13:24:25.409Z,65.88
2023-01-09T13:29:33.119Z,66.90
2023-01-09T13:34:38.697Z,67.21
2023-01-09T13:39:41.797Z,65.50
2023-01-09T13:44:47.084Z,64.78
2023-01-09T13:49:50.164Z,62.66
2023-01-09T13:54:53.474Z,62.72
2023-01-09T14:00:19.946Z,61.73
2023-01-09T14:05:25.811Z,62.65
2023-01-09T14:10:35.975Z,62.71
2023-01-09T14:15:46.630Z,62.77
2023-01-09T14:21:00.729Z,63.17
2023-01-09T14:26:04.326Z,61.86
2023-01-09T14:31:09.714Z,63.31
2023-01-09T14:36:25.282Z,63.61
2023-01-09T14:42:06.629Z,63.32
2023-01-09T14:47:31.273Z,63.78
2023-01-09T14:52:58.297Z,63.38
2023-01-09T14:58:31.919Z,63.82
2023-01-09T15:03:54.283Z,65.38
2023-01-09T15:09:00.877Z,63.75
2023-01-09T15:14:06.220Z,63.87
2023-01-09T15:19:09.653Z,62.79
2023-01-09T15:24:13.635Z,64.03
2023-01-09T15:29:17.811Z,64.31
2023-01-09T15:34:23.731Z,63.99
2023-01-09T15:39:31.512Z,63.29
2023-01-09T15:44:37.467Z,64.26
2023-01-09T15:49:40.711Z,63.84
2023-01-09T15:54:46.785Z,63.49
2023-01-09T15:59:49.888Z,62.53
2023-01-09T16:04:55.866Z,62.00
2023-01-09T16:09:59.176Z,62.18
2023-01-09T16:15:02.399Z,62.49
2023-01-09T16:20:24.810Z,61.78
2023-01-09T16:25:37.393Z,61.60
2023-01-09T16:30:58.503Z,61.93
2023-01-09T16:36:03.564Z,62.89
2023-01-09T16:41:31.766Z,62.45
2023-01-09T16:46:41.736Z,62.47
2023-01-09T16:51:44.966Z,62.57
2023-01-09T16:56:50.938Z,61.36
2023-01-09T17:01:54.811Z,61.00
2023-01-09T17:06:57.960Z,61.31
2023-01-09T17:12:00.853Z,60.83
2023-01-09T17:17:04.237Z,61.31
2023-01-09T17:22:10.570Z,61.47
2023-01-09T17:27:32.509Z,61.82
2023-01-09T17:32:35.523Z,60.25
2023-01-09T17:37:39.385Z,59.12
2023-01-09T17:42:42.348Z,67.59
2023-01-09T17:47:45.560Z,68.50
2023-01-09T17:52:49.641Z,68.68
2023-01-09T17:57:52.608Z,69.13
2023-01-09T18:02:57.358Z,70.22
2023-01-09T18:08:00.659Z,71.07
2023-01-09T18:13:03.558Z,68.98
2023-01-09T18:18:06.564Z,67.03
2023-01-09T18:23:11.091Z,65.60
2023-01-09T18:28:18.621Z,64.61
2023-01-09T18:33:21.625Z,64.01
2023-01-09T18:38:24.649Z,63.32
2023-01-09T18:43:27.737Z,62.72
2023-01-09T18:48:30.821Z,62.32
2023-01-09T18:53:35.028Z,62.51
2023-01-09T18:58:38.098Z,62.47
2023-01-09T19:03:41.828Z,63.11
2023-01-09T19:08:44.926Z,63.57
2023-01-09T19:13:47.938Z,63.34
2023-01-09T19:18:51.136Z,63.05
2023-01-09T19:23:55.062Z,63.45
2023-01-09T19:28:58.225Z,62.70
2023-01-09T19:34:01.840Z,63.36
2023-01-09T19:39:05.595Z,64.42
2023-01-09T19:44:09.044Z,64.95
2023-01-09T19:49:12.460Z,65.42
2023-01-09T19:54:15.622Z,65.85
2023-01-09T19:59:18.891Z,66.71
2023-01-09T20:04:21.891Z,66.53
2023-01-09T20:09:27.663Z,66.81
2023-01-09T20:14:31.245Z,67.05
2023-01-09T20:19:34.392Z,66.67
2023-01-09T20:24:39.137Z,66.32
2023-01-09T20:29:42.142Z,66.17
2023-01-09T20:34:45.237Z,65.97
2023-01-09T20:39:48.249Z,66.85
2023-01-09T20:44:51.258Z,67.07
2023-01-09T20:49:54.168Z,67.76
2023-01-09T20:54:57.272Z,67.68
2023-01-09T21:00:00.276Z,67.68
2023-01-09T21:05:04.051Z,68.24
2023-01-09T21:10:07.455Z,68.58
2023-01-09T21:15:15.332Z,68.30
2023-01-09T21:20:18.654Z,68.27
2023-01-09T21:25:21.757Z,67.94
2023-01-09T21:30:24.767Z,67.78
2023-01-09T21:35:27.669Z,67.55
2023-01-09T21:40:30.574Z,67.67
2023-01-09T21:45:52.566Z,67.48
2023-01-09T21:50:55.535Z,67.55
2023-01-09T21:55:58.431Z,67.35
2023-01-09T22:01:03.505Z,67.22
2023-01-09T22:06:06.877Z,66.91
2023-01-09T22:11:09.922Z,66.94
2023-01-09T22:16:13.203Z,66.79
2023-01-09T22:21:17.719Z,66.77
2023-01-09T22:26:20.994Z,66.85
2023-01-09T22:31:29.453Z,66.80
2023-01-09T22:36:32.592Z,66.73
2023-01-09T22:41:35.737Z,66.74
2023-01-09T22:46:39.131Z,66.63
2023-01-09T22:51:42.057Z,66.48
2023-01-09T22:56:45.077Z,66.70
2023-01-09T23:01:48.176Z,66.99
2023-01-09T23:06:51.504Z,67.10
2023-01-09T23:12:03.717Z,67.26
2023-01-09T23:17:08.251Z,67.40
2023-01-09T23:22:11.259Z,67.47
2023-01-09T23:27:14.372Z,67.84
2023-01-09T23:32:17.590Z,68.10
2023-01-09T23:37:20.583Z,67.96
2023-01-09T23:42:42.223Z,67.92
2023-01-09T23:47:45.236Z,67.92
2023-01-09T23:52:48.439Z,67.94
2023-01-09T23:57:55.692Z,67.73
